sensor_id;sensor_type;location;lat;lon;timestamp;P1;durP1;ratioP1;P2;durP2;ratioP2
26536;SDS011;14204;51.262;5.488;2022-10-17T00:01:41;30.48;;;16.30;;
26536;SDS011;14204;51.262;5.488;2022-10-17T00:04:07;31.98;;;17.80;;
26536;SDS011;14204;51.262;5.488;2022-10-17T00:06:32;24.25;;;17.30;;
26536;SDS011;14204;51.262;5.488;2022-10-17T00:08:58;25.80;;;16.08;;
26536;SDS011;14204;51.262;5.488;2022-10-17T00:11:24;25.20;;;17.42;;
26536;SDS011;14204;51.262;5.488;2022-10-17T00:13:50;33.88;;;16.25;;
26536;SDS011;14204;51.262;5.488;2022-10-17T00:16:25;25.75;;;17.48;;
26536;SDS011;14204;51.262;5.488;2022-10-17T00:18:52;31.02;;;18.23;;
26536;SDS011;14204;51.262;5.488;2022-10-17T00:21:19;29.40;;;18.27;;
26536;SDS011;14204;51.262;5.488;2022-10-17T00:23:46;29.58;;;15.93;;
26536;SDS011;14204;51.262;5.488;2022-10-17T00:26:12;32.25;;;20.70;;
26536;SDS011;14204;51.262;5.488;2022-10-17T00:28:38;43.38;;;19.20;;
26536;SDS011;14204;51.262;5.488;2022-10-17T00:31:04;60.75;;;22.58;;
26536;SDS011;14204;51.262;5.488;2022-10-17T00:33:31;31.45;;;18.05;;
26536;SDS011;14204;51.262;5.488;2022-10-17T00:36:06;29.25;;;18.40;;
26536;SDS011;14204;51.262;5.488;2022-10-17T00:38:37;21.35;;;14.52;;
26536;SDS011;14204;51.262;5.488;2022-10-17T00:41:04;30.63;;;17.17;;
26536;SDS011;14204;51.262;5.488;2022-10-17T00:46:18;25.27;;;14.73;;
26536;SDS011;14204;51.262;5.488;2022-10-17T00:48:45;29.20;;;17.20;;
26536;SDS011;14204;51.262;5.488;2022-10-17T00:51:12;30.52;;;17.23;;
26536;SDS011;14204;51.262;5.488;2022-10-17T00:53:38;26.58;;;16.73;;
26536;SDS011;14204;51.262;5.488;2022-10-17T00:56:05;22.88;;;15.80;;
26536;SDS011;14204;51.262;5.488;2022-10-17T00:58:30;20.50;;;16.42;;
26536;SDS011;14204;51.262;5.488;2022-10-17T01:00:56;27.95;;;16.70;;
26536;SDS011;14204;51.262;5.488;2022-10-17T01:03:22;24.77;;;15.90;;
26536;SDS011;14204;51.262;5.488;2022-10-17T01:05:48;25.65;;;16.55;;
26536;SDS011;14204;51.262;5.488;2022-10-17T01:08:14;28.45;;;16.55;;
26536;SDS011;14204;51.262;5.488;2022-10-17T01:13:20;27.85;;;17.20;;
26536;SDS011;14204;51.262;5.488;2022-10-17T01:24:26;27.02;;;15.18;;
26536;SDS011;14204;51.262;5.488;2022-10-17T01:33:09;24.08;;;14.43;;
26536;SDS011;14204;51.262;5.488;2022-10-17T01:38:57;27.23;;;14.75;;
26536;SDS011;14204;51.262;5.488;2022-10-17T01:44:24;43.88;;;17.92;;
26536;SDS011;14204;51.262;5.488;2022-10-17T01:47:26;35.85;;;16.73;;
26536;SDS011;14204;51.262;5.488;2022-10-17T01:49:45;25.08;;;16.25;;
26536;SDS011;14204;51.262;5.488;2022-10-17T01:52:18;23.98;;;15.13;;
26536;SDS011;14204;51.262;5.488;2022-10-17T01:54:52;32.85;;;16.95;;
26536;SDS011;14204;51.262;5.488;2022-10-17T01:57:25;33.88;;;18.60;;
26536;SDS011;14204;51.262;5.488;2022-10-17T01:59:58;71.43;;;23.02;;
26536;SDS011;14204;51.262;5.488;2022-10-17T02:02:26;29.98;;;17.48;;
26536;SDS011;14204;51.262;5.488;2022-10-17T02:04:53;87.25;;;26.58;;
26536;SDS011;14204;51.262;5.488;2022-10-17T02:07:20;22.45;;;15.40;;
26536;SDS011;14204;51.262;5.488;2022-10-17T02:09:46;92.13;;;27.17;;
26536;SDS011;14204;51.262;5.488;2022-10-17T02:14:45;33.65;;;17.10;;
26536;SDS011;14204;51.262;5.488;2022-10-17T02:17:24;26.58;;;17.50;;
26536;SDS011;14204;51.262;5.488;2022-10-17T02:23:02;32.47;;;16.77;;
26536;SDS011;14204;51.262;5.488;2022-10-17T02:25:51;40.65;;;18.83;;
26536;SDS011;14204;51.262;5.488;2022-10-17T02:28:41;23.95;;;16.17;;
26536;SDS011;14204;51.262;5.488;2022-10-17T02:32:18;37.58;;;19.10;;
26536;SDS011;14204;51.262;5.488;2022-10-17T02:36:47;29.85;;;19.02;;
26536;SDS011;14204;51.262;5.488;2022-10-17T02:39:17;30.30;;;18.48;;
26536;SDS011;14204;51.262;5.488;2022-10-17T02:41:45;27.25;;;14.80;;
26536;SDS011;14204;51.262;5.488;2022-10-17T02:44:13;37.40;;;18.33;;
26536;SDS011;14204;51.262;5.488;2022-10-17T02:46:39;31.25;;;17.65;;
26536;SDS011;14204;51.262;5.488;2022-10-17T02:49:27;24.90;;;16.17;;
26536;SDS011;14204;51.262;5.488;2022-10-17T02:54:35;27.95;;;19.40;;
26536;SDS011;14204;51.262;5.488;2022-10-17T03:00:12;30.50;;;17.75;;
26536;SDS011;14204;51.262;5.488;2022-10-17T03:02:40;21.98;;;17.50;;
26536;SDS011;14204;51.262;5.488;2022-10-17T03:05:12;32.88;;;20.63;;
26536;SDS011;14204;51.262;5.488;2022-10-17T03:07:38;29.77;;;18.25;;
26536;SDS011;14204;51.262;5.488;2022-10-17T03:10:04;28.20;;;19.80;;
26536;SDS011;14204;51.262;5.488;2022-10-17T03:12:31;26.63;;;15.30;;
26536;SDS011;14204;51.262;5.488;2022-10-17T03:14:56;24.67;;;15.63;;
26536;SDS011;14204;51.262;5.488;2022-10-17T03:17:22;27.35;;;17.77;;
26536;SDS011;14204;51.262;5.488;2022-10-17T03:19:47;31.83;;;20.92;;
26536;SDS011;14204;51.262;5.488;2022-10-17T03:22:13;35.50;;;20.45;;
26536;SDS011;14204;51.262;5.488;2022-10-17T03:24:38;17.90;;;14.15;;
26536;SDS011;14204;51.262;5.488;2022-10-17T03:27:04;21.70;;;15.63;;
26536;SDS011;14204;51.262;5.488;2022-10-17T03:29:30;27.52;;;18.38;;
26536;SDS011;14204;51.262;5.488;2022-10-17T03:31:55;22.30;;;14.65;;
26536;SDS011;14204;51.262;5.488;2022-10-17T03:34:21;29.25;;;20.05;;
26536;SDS011;14204;51.262;5.488;2022-10-17T03:36:47;26.10;;;16.52;;
26536;SDS011;14204;51.262;5.488;2022-10-17T03:39:12;28.27;;;17.38;;
26536;SDS011;14204;51.262;5.488;2022-10-17T03:41:38;23.88;;;16.50;;
26536;SDS011;14204;51.262;5.488;2022-10-17T03:44:03;27.90;;;17.00;;
26536;SDS011;14204;51.262;5.488;2022-10-17T03:46:29;30.67;;;19.15;;
26536;SDS011;14204;51.262;5.488;2022-10-17T03:48:54;26.77;;;17.70;;
26536;SDS011;14204;51.262;5.488;2022-10-17T03:51:20;31.13;;;19.92;;
26536;SDS011;14204;51.262;5.488;2022-10-17T03:53:46;24.15;;;16.77;;
26536;SDS011;14204;51.262;5.488;2022-10-17T03:56:13;27.08;;;17.42;;
26536;SDS011;14204;51.262;5.488;2022-10-17T03:58:49;29.52;;;18.15;;
26536;SDS011;14204;51.262;5.488;2022-10-17T04:01:15;29.98;;;16.65;;
26536;SDS011;14204;51.262;5.488;2022-10-17T04:03:41;28.45;;;18.58;;
26536;SDS011;14204;51.262;5.488;2022-10-17T04:06:10;22.85;;;16.85;;
26536;SDS011;14204;51.262;5.488;2022-10-17T04:08:36;20.92;;;15.23;;
26536;SDS011;14204;51.262;5.488;2022-10-17T04:11:03;28.83;;;17.45;;
26536;SDS011;14204;51.262;5.488;2022-10-17T04:13:31;24.52;;;17.55;;
26536;SDS011;14204;51.262;5.488;2022-10-17T04:15:59;21.50;;;16.40;;
26536;SDS011;14204;51.262;5.488;2022-10-17T04:18:27;19.02;;;14.35;;
26536;SDS011;14204;51.262;5.488;2022-10-17T04:20:53;27.83;;;17.88;;
26536;SDS011;14204;51.262;5.488;2022-10-17T04:23:19;24.58;;;16.58;;
26536;SDS011;14204;51.262;5.488;2022-10-17T04:25:44;25.88;;;17.50;;
26536;SDS011;14204;51.262;5.488;2022-10-17T04:28:10;20.13;;;12.32;;
26536;SDS011;14204;51.262;5.488;2022-10-17T04:30:36;24.63;;;15.13;;
26536;SDS011;14204;51.262;5.488;2022-10-17T04:33:02;22.88;;;14.80;;
26536;SDS011;14204;51.262;5.488;2022-10-17T04:35:28;21.08;;;14.45;;
26536;SDS011;14204;51.262;5.488;2022-10-17T04:37:53;22.67;;;15.18;;
26536;SDS011;14204;51.262;5.488;2022-10-17T04:40:19;21.13;;;14.68;;
26536;SDS011;14204;51.262;5.488;2022-10-17T04:42:45;21.30;;;13.65;;
26536;SDS011;14204;51.262;5.488;2022-10-17T04:45:10;19.90;;;14.18;;
26536;SDS011;14204;51.262;5.488;2022-10-17T04:47:36;21.05;;;13.00;;
26536;SDS011;14204;51.262;5.488;2022-10-17T04:50:02;18.98;;;11.25;;
26536;SDS011;14204;51.262;5.488;2022-10-17T04:52:28;20.63;;;13.02;;
26536;SDS011;14204;51.262;5.488;2022-10-17T04:54:54;20.63;;;14.43;;
26536;SDS011;14204;51.262;5.488;2022-10-17T04:57:20;23.30;;;13.73;;
26536;SDS011;14204;51.262;5.488;2022-10-17T04:59:45;24.73;;;13.68;;
26536;SDS011;14204;51.262;5.488;2022-10-17T05:02:11;24.23;;;14.60;;
26536;SDS011;14204;51.262;5.488;2022-10-17T05:04:36;15.07;;;12.13;;
26536;SDS011;14204;51.262;5.488;2022-10-17T05:07:02;19.02;;;13.50;;
26536;SDS011;14204;51.262;5.488;2022-10-17T05:09:28;17.15;;;13.20;;
26536;SDS011;14204;51.262;5.488;2022-10-17T05:11:54;19.65;;;14.18;;
26536;SDS011;14204;51.262;5.488;2022-10-17T05:14:19;20.95;;;14.13;;
26536;SDS011;14204;51.262;5.488;2022-10-17T05:16:45;20.90;;;13.63;;
26536;SDS011;14204;51.262;5.488;2022-10-17T05:19:11;23.73;;;13.48;;
26536;SDS011;14204;51.262;5.488;2022-10-17T05:21:37;17.02;;;13.88;;
26536;SDS011;14204;51.262;5.488;2022-10-17T05:24:10;18.13;;;12.88;;
26536;SDS011;14204;51.262;5.488;2022-10-17T05:26:37;18.13;;;12.93;;
26536;SDS011;14204;51.262;5.488;2022-10-17T05:29:03;17.27;;;12.60;;
26536;SDS011;14204;51.262;5.488;2022-10-17T05:31:30;16.65;;;12.55;;
26536;SDS011;14204;51.262;5.488;2022-10-17T05:33:59;18.80;;;13.00;;
26536;SDS011;14204;51.262;5.488;2022-10-17T05:36:28;20.50;;;13.25;;
26536;SDS011;14204;51.262;5.488;2022-10-17T05:38:54;17.45;;;12.90;;
26536;SDS011;14204;51.262;5.488;2022-10-17T05:41:20;15.93;;;13.52;;
26536;SDS011;14204;51.262;5.488;2022-10-17T05:43:45;18.80;;;13.48;;
26536;SDS011;14204;51.262;5.488;2022-10-17T05:46:11;18.20;;;13.63;;
26536;SDS011;14204;51.262;5.488;2022-10-17T05:48:37;16.08;;;10.63;;
26536;SDS011;14204;51.262;5.488;2022-10-17T05:51:04;18.17;;;13.80;;
26536;SDS011;14204;51.262;5.488;2022-10-17T05:53:32;17.60;;;13.10;;
26536;SDS011;14204;51.262;5.488;2022-10-17T05:56:01;20.35;;;13.80;;
26536;SDS011;14204;51.262;5.488;2022-10-17T05:58:29;21.55;;;13.45;;
26536;SDS011;14204;51.262;5.488;2022-10-17T06:00:58;17.98;;;12.65;;
26536;SDS011;14204;51.262;5.488;2022-10-17T06:03:25;16.08;;;13.68;;
26536;SDS011;14204;51.262;5.488;2022-10-17T06:05:50;18.10;;;11.57;;
26536;SDS011;14204;51.262;5.488;2022-10-17T06:08:16;18.08;;;12.13;;
26536;SDS011;14204;51.262;5.488;2022-10-17T06:10:42;14.82;;;12.20;;
26536;SDS011;14204;51.262;5.488;2022-10-17T06:13:08;23.40;;;18.33;;
26536;SDS011;14204;51.262;5.488;2022-10-17T06:15:33;20.63;;;13.50;;
26536;SDS011;14204;51.262;5.488;2022-10-17T06:17:59;16.13;;;12.73;;
26536;SDS011;14204;51.262;5.488;2022-10-17T06:20:25;14.88;;;10.82;;
26536;SDS011;14204;51.262;5.488;2022-10-17T06:22:50;18.67;;;11.73;;
26536;SDS011;14204;51.262;5.488;2022-10-17T06:25:16;15.65;;;11.93;;
26536;SDS011;14204;51.262;5.488;2022-10-17T06:27:41;15.20;;;12.38;;
26536;SDS011;14204;51.262;5.488;2022-10-17T06:30:07;15.18;;;12.27;;
26536;SDS011;14204;51.262;5.488;2022-10-17T06:32:33;16.35;;;12.02;;
26536;SDS011;14204;51.262;5.488;2022-10-17T06:34:58;17.02;;;11.77;;
26536;SDS011;14204;51.262;5.488;2022-10-17T06:37:24;16.38;;;11.40;;
26536;SDS011;14204;51.262;5.488;2022-10-17T06:39:49;19.50;;;12.13;;
26536;SDS011;14204;51.262;5.488;2022-10-17T06:42:15;17.13;;;12.32;;
26536;SDS011;14204;51.262;5.488;2022-10-17T06:44:41;17.35;;;11.60;;
26536;SDS011;14204;51.262;5.488;2022-10-17T06:47:08;12.45;;;9.88;;
26536;SDS011;14204;51.262;5.488;2022-10-17T06:49:34;14.13;;;10.15;;
26536;SDS011;14204;51.262;5.488;2022-10-17T06:51:59;16.02;;;9.43;;
26536;SDS011;14204;51.262;5.488;2022-10-17T06:54:25;16.63;;;10.15;;
26536;SDS011;14204;51.262;5.488;2022-10-17T06:56:52;14.38;;;10.35;;
26536;SDS011;14204;51.262;5.488;2022-10-17T06:59:17;12.90;;;10.50;;
26536;SDS011;14204;51.262;5.488;2022-10-17T07:01:43;15.25;;;9.75;;
26536;SDS011;14204;51.262;5.488;2022-10-17T07:04:08;13.27;;;9.38;;
26536;SDS011;14204;51.262;5.488;2022-10-17T07:06:34;16.27;;;9.55;;
26536;SDS011;14204;51.262;5.488;2022-10-17T07:09:00;14.93;;;10.20;;
26536;SDS011;14204;51.262;5.488;2022-10-17T07:11:26;14.18;;;9.70;;
26536;SDS011;14204;51.262;5.488;2022-10-17T07:13:52;12.55;;;8.88;;
26536;SDS011;14204;51.262;5.488;2022-10-17T07:16:18;13.45;;;8.98;;
26536;SDS011;14204;51.262;5.488;2022-10-17T07:18:47;14.68;;;10.10;;
26536;SDS011;14204;51.262;5.488;2022-10-17T07:21:13;9.70;;;8.23;;
26536;SDS011;14204;51.262;5.488;2022-10-17T07:23:39;10.60;;;7.38;;
26536;SDS011;14204;51.262;5.488;2022-10-17T07:26:06;14.50;;;7.78;;
26536;SDS011;14204;51.262;5.488;2022-10-17T07:28:35;11.65;;;8.55;;
26536;SDS011;14204;51.262;5.488;2022-10-17T07:31:05;12.43;;;7.85;;
26536;SDS011;14204;51.262;5.488;2022-10-17T07:33:32;11.15;;;7.75;;
26536;SDS011;14204;51.262;5.488;2022-10-17T07:35:59;12.38;;;7.30;;
26536;SDS011;14204;51.262;5.488;2022-10-17T07:38:25;8.93;;;7.38;;
26536;SDS011;14204;51.262;5.488;2022-10-17T07:40:54;9.55;;;6.75;;
26536;SDS011;14204;51.262;5.488;2022-10-17T07:43:25;16.15;;;7.30;;
26536;SDS011;14204;51.262;5.488;2022-10-17T07:45:52;16.02;;;7.85;;
26536;SDS011;14204;51.262;5.488;2022-10-17T07:48:18;10.85;;;6.93;;
26536;SDS011;14204;51.262;5.488;2022-10-17T07:50:46;15.95;;;7.78;;
26536;SDS011;14204;51.262;5.488;2022-10-17T07:53:12;10.43;;;6.70;;
26536;SDS011;14204;51.262;5.488;2022-10-17T07:55:38;10.25;;;6.07;;
26536;SDS011;14204;51.262;5.488;2022-10-17T07:58:04;10.80;;;6.40;;
26536;SDS011;14204;51.262;5.488;2022-10-17T08:00:31;8.35;;;5.95;;
26536;SDS011;14204;51.262;5.488;2022-10-17T08:02:57;11.52;;;6.82;;
26536;SDS011;14204;51.262;5.488;2022-10-17T08:05:23;13.52;;;6.28;;
26536;SDS011;14204;51.262;5.488;2022-10-17T08:07:49;9.68;;;6.40;;
26536;SDS011;14204;51.262;5.488;2022-10-17T08:10:14;9.30;;;6.07;;
26536;SDS011;14204;51.262;5.488;2022-10-17T08:12:40;13.75;;;6.10;;
26536;SDS011;14204;51.262;5.488;2022-10-17T08:15:06;7.45;;;5.72;;
26536;SDS011;14204;51.262;5.488;2022-10-17T08:17:33;10.75;;;7.18;;
26536;SDS011;14204;51.262;5.488;2022-10-17T08:20:00;10.75;;;6.07;;
26536;SDS011;14204;51.262;5.488;2022-10-17T08:22:27;12.48;;;6.35;;
26536;SDS011;14204;51.262;5.488;2022-10-17T08:24:53;10.70;;;5.90;;
26536;SDS011;14204;51.262;5.488;2022-10-17T08:27:18;8.18;;;6.07;;
26536;SDS011;14204;51.262;5.488;2022-10-17T08:29:53;10.40;;;5.78;;
26536;SDS011;14204;51.262;5.488;2022-10-17T08:32:23;10.25;;;6.70;;
26536;SDS011;14204;51.262;5.488;2022-10-17T08:34:50;7.90;;;6.20;;
26536;SDS011;14204;51.262;5.488;2022-10-17T08:37:16;10.02;;;5.68;;
26536;SDS011;14204;51.262;5.488;2022-10-17T08:39:42;7.82;;;6.22;;
26536;SDS011;14204;51.262;5.488;2022-10-17T08:47:37;9.48;;;5.68;;
26536;SDS011;14204;51.262;5.488;2022-10-17T08:50:51;13.33;;;5.63;;
26536;SDS011;14204;51.262;5.488;2022-10-17T08:52:54;12.27;;;6.00;;
26536;SDS011;14204;51.262;5.488;2022-10-17T08:55:28;9.30;;;6.25;;
26536;SDS011;14204;51.262;5.488;2022-10-17T08:58:10;13.98;;;6.60;;
26536;SDS011;14204;51.262;5.488;2022-10-17T09:00:38;10.52;;;5.93;;
26536;SDS011;14204;51.262;5.488;2022-10-17T09:17:14;11.13;;;6.80;;
26536;SDS011;14204;51.262;5.488;2022-10-17T09:19:59;9.73;;;7.03;;
26536;SDS011;14204;51.262;5.488;2022-10-17T09:25:20;9.70;;;6.18;;
26536;SDS011;14204;51.262;5.488;2022-10-17T09:27:47;14.43;;;7.65;;
26536;SDS011;14204;51.262;5.488;2022-10-17T09:30:25;11.18;;;8.10;;
26536;SDS011;14204;51.262;5.488;2022-10-17T09:32:58;8.93;;;7.53;;
26536;SDS011;14204;51.262;5.488;2022-10-17T09:35:25;12.23;;;8.32;;
26536;SDS011;14204;51.262;5.488;2022-10-17T09:37:52;14.82;;;9.07;;
26536;SDS011;14204;51.262;5.488;2022-10-17T09:40:20;14.70;;;9.35;;
26536;SDS011;14204;51.262;5.488;2022-10-17T09:42:56;13.95;;;9.65;;
26536;SDS011;14204;51.262;5.488;2022-10-17T09:45:23;22.10;;;11.43;;
26536;SDS011;14204;51.262;5.488;2022-10-17T09:50:27;15.80;;;9.95;;
26536;SDS011;14204;51.262;5.488;2022-10-17T09:58:19;20.45;;;9.82;;
26536;SDS011;14204;51.262;5.488;2022-10-17T10:00:46;17.38;;;9.63;;
26536;SDS011;14204;51.262;5.488;2022-10-17T10:06:05;17.25;;;10.68;;
26536;SDS011;14204;51.262;5.488;2022-10-17T10:08:47;14.40;;;9.38;;
26536;SDS011;14204;51.262;5.488;2022-10-17T10:11:15;18.77;;;10.80;;
26536;SDS011;14204;51.262;5.488;2022-10-17T10:13:41;18.10;;;12.30;;
26536;SDS011;14204;51.262;5.488;2022-10-17T10:16:18;21.05;;;12.40;;
26536;SDS011;14204;51.262;5.488;2022-10-17T10:19:18;17.52;;;11.18;;
26536;SDS011;14204;51.262;5.488;2022-10-17T10:21:54;19.23;;;10.85;;
26536;SDS011;14204;51.262;5.488;2022-10-17T10:24:21;18.90;;;10.75;;
26536;SDS011;14204;51.262;5.488;2022-10-17T10:26:48;20.10;;;10.90;;
26536;SDS011;14204;51.262;5.488;2022-10-17T10:31:46;36.10;;;13.50;;
26536;SDS011;14204;51.262;5.488;2022-10-17T10:34:14;14.63;;;11.25;;
26536;SDS011;14204;51.262;5.488;2022-10-17T10:36:41;14.57;;;10.05;;
26536;SDS011;14204;51.262;5.488;2022-10-17T10:39:36;13.57;;;9.00;;
26536;SDS011;14204;51.262;5.488;2022-10-17T10:42:08;16.15;;;11.18;;
26536;SDS011;14204;51.262;5.488;2022-10-17T10:45:04;17.08;;;10.60;;
26536;SDS011;14204;51.262;5.488;2022-10-17T10:47:38;15.20;;;9.82;;
26536;SDS011;14204;51.262;5.488;2022-10-17T10:55:56;15.35;;;10.18;;
26536;SDS011;14204;51.262;5.488;2022-10-17T11:01:06;11.68;;;9.10;;
26536;SDS011;14204;51.262;5.488;2022-10-17T11:06:25;14.30;;;10.05;;
26536;SDS011;14204;51.262;5.488;2022-10-17T11:08:59;15.10;;;11.07;;
26536;SDS011;14204;51.262;5.488;2022-10-17T11:11:31;17.65;;;11.18;;
26536;SDS011;14204;51.262;5.488;2022-10-17T11:15:06;17.27;;;10.95;;
26536;SDS011;14204;51.262;5.488;2022-10-17T11:17:51;17.67;;;10.65;;
26536;SDS011;14204;51.262;5.488;2022-10-17T11:25:45;20.48;;;11.50;;
26536;SDS011;14204;51.262;5.488;2022-10-17T11:28:14;17.75;;;11.75;;
26536;SDS011;14204;51.262;5.488;2022-10-17T11:33:21;20.42;;;12.85;;
26536;SDS011;14204;51.262;5.488;2022-10-17T11:35:52;19.25;;;11.60;;
26536;SDS011;14204;51.262;5.488;2022-10-17T11:40:59;28.73;;;12.57;;
26536;SDS011;14204;51.262;5.488;2022-10-17T11:46:28;18.55;;;11.18;;
26536;SDS011;14204;51.262;5.488;2022-10-17T11:51:24;19.63;;;12.57;;
26536;SDS011;14204;51.262;5.488;2022-10-17T11:53:54;16.17;;;13.02;;
26536;SDS011;14204;51.262;5.488;2022-10-17T11:56:41;17.80;;;12.73;;
26536;SDS011;14204;51.262;5.488;2022-10-17T12:02:10;14.45;;;10.45;;
26536;SDS011;14204;51.262;5.488;2022-10-17T12:04:56;20.05;;;10.63;;
26536;SDS011;14204;51.262;5.488;2022-10-17T12:10:04;12.25;;;8.82;;
26536;SDS011;14204;51.262;5.488;2022-10-17T12:12:44;17.67;;;9.23;;
26536;SDS011;14204;51.262;5.488;2022-10-17T12:17:45;14.23;;;7.55;;
26536;SDS011;14204;51.262;5.488;2022-10-17T12:25:26;12.80;;;6.93;;
26536;SDS011;14204;51.262;5.488;2022-10-17T12:30:30;11.70;;;7.88;;
26536;SDS011;14204;51.262;5.488;2022-10-17T12:35:25;12.00;;;7.93;;
26536;SDS011;14204;51.262;5.488;2022-10-17T12:43:02;16.05;;;8.30;;
26536;SDS011;14204;51.262;5.488;2022-10-17T12:45:56;13.70;;;8.68;;
26536;SDS011;14204;51.262;5.488;2022-10-17T12:51:14;13.25;;;9.18;;
26536;SDS011;14204;51.262;5.488;2022-10-17T12:56:43;14.52;;;8.93;;
26536;SDS011;14204;51.262;5.488;2022-10-17T12:59:24;19.67;;;11.15;;
26536;SDS011;14204;51.262;5.488;2022-10-17T13:01:59;22.02;;;10.63;;
26536;SDS011;14204;51.262;5.488;2022-10-17T13:04:27;18.50;;;11.02;;
26536;SDS011;14204;51.262;5.488;2022-10-17T13:06:55;14.50;;;10.95;;
26536;SDS011;14204;51.262;5.488;2022-10-17T13:09:29;17.50;;;11.25;;
26536;SDS011;14204;51.262;5.488;2022-10-17T13:11:58;19.23;;;12.02;;
26536;SDS011;14204;51.262;5.488;2022-10-17T13:14:26;20.05;;;12.23;;
26536;SDS011;14204;51.262;5.488;2022-10-17T13:19:23;16.98;;;10.95;;
26536;SDS011;14204;51.262;5.488;2022-10-17T13:24:42;21.85;;;14.05;;
26536;SDS011;14204;51.262;5.488;2022-10-17T13:29:55;18.10;;;13.40;;
26536;SDS011;14204;51.262;5.488;2022-10-17T13:32:23;19.45;;;13.98;;
26536;SDS011;14204;51.262;5.488;2022-10-17T13:35:09;20.52;;;12.68;;
26536;SDS011;14204;51.262;5.488;2022-10-17T13:37:38;14.85;;;12.38;;
26536;SDS011;14204;51.262;5.488;2022-10-17T13:40:05;21.70;;;14.05;;
26536;SDS011;14204;51.262;5.488;2022-10-17T13:42:39;18.45;;;13.27;;
26536;SDS011;14204;51.262;5.488;2022-10-17T13:45:48;20.25;;;13.23;;
26536;SDS011;14204;51.262;5.488;2022-10-17T13:47:54;19.83;;;13.20;;
26536;SDS011;14204;51.262;5.488;2022-10-17T13:50:28;23.27;;;14.40;;
26536;SDS011;14204;51.262;5.488;2022-10-17T13:55:36;16.63;;;12.63;;
26536;SDS011;14204;51.262;5.488;2022-10-17T13:58:12;26.25;;;15.25;;
26536;SDS011;14204;51.262;5.488;2022-10-17T14:00:40;25.67;;;14.68;;
26536;SDS011;14204;51.262;5.488;2022-10-17T14:03:06;20.60;;;14.32;;
26536;SDS011;14204;51.262;5.488;2022-10-17T14:05:32;21.60;;;14.95;;
26536;SDS011;14204;51.262;5.488;2022-10-17T14:07:58;18.67;;;13.35;;
26536;SDS011;14204;51.262;5.488;2022-10-17T14:10:29;23.70;;;15.30;;
26536;SDS011;14204;51.262;5.488;2022-10-17T14:12:59;22.42;;;16.17;;
26536;SDS011;14204;51.262;5.488;2022-10-17T14:15:27;21.08;;;15.43;;
26536;SDS011;14204;51.262;5.488;2022-10-17T14:17:58;22.48;;;15.45;;
26536;SDS011;14204;51.262;5.488;2022-10-17T14:20:26;21.80;;;14.90;;
26536;SDS011;14204;51.262;5.488;2022-10-17T14:22:53;20.55;;;15.32;;
26536;SDS011;14204;51.262;5.488;2022-10-17T14:25:33;27.30;;;16.77;;
26536;SDS011;14204;51.262;5.488;2022-10-17T14:30:39;22.25;;;16.83;;
26536;SDS011;14204;51.262;5.488;2022-10-17T14:33:11;22.17;;;15.25;;
26536;SDS011;14204;51.262;5.488;2022-10-17T14:35:51;22.60;;;16.08;;
26536;SDS011;14204;51.262;5.488;2022-10-17T14:38:18;19.60;;;14.40;;
26536;SDS011;14204;51.262;5.488;2022-10-17T14:40:52;18.27;;;13.80;;
26536;SDS011;14204;51.262;5.488;2022-10-17T14:43:27;17.75;;;13.32;;
26536;SDS011;14204;51.262;5.488;2022-10-17T14:45:58;18.52;;;14.43;;
26536;SDS011;14204;51.262;5.488;2022-10-17T14:48:25;23.02;;;16.30;;
26536;SDS011;14204;51.262;5.488;2022-10-17T14:53:30;17.88;;;14.75;;
26536;SDS011;14204;51.262;5.488;2022-10-17T14:55:57;19.90;;;14.93;;
26536;SDS011;14204;51.262;5.488;2022-10-17T14:58:25;22.45;;;15.48;;
26536;SDS011;14204;51.262;5.488;2022-10-17T15:00:52;20.13;;;13.98;;
26536;SDS011;14204;51.262;5.488;2022-10-17T15:03:18;17.23;;;14.45;;
26536;SDS011;14204;51.262;5.488;2022-10-17T15:05:47;22.08;;;14.93;;
26536;SDS011;14204;51.262;5.488;2022-10-17T15:08:14;18.83;;;12.27;;
26536;SDS011;14204;51.262;5.488;2022-10-17T15:10:41;21.17;;;14.80;;
26536;SDS011;14204;51.262;5.488;2022-10-17T15:13:08;22.45;;;15.02;;
26536;SDS011;14204;51.262;5.488;2022-10-17T15:15:35;21.15;;;15.40;;
26536;SDS011;14204;51.262;5.488;2022-10-17T15:18:02;19.67;;;15.88;;
26536;SDS011;14204;51.262;5.488;2022-10-17T15:20:28;20.98;;;14.95;;
26536;SDS011;14204;51.262;5.488;2022-10-17T15:22:55;21.15;;;15.38;;
26536;SDS011;14204;51.262;5.488;2022-10-17T15:25:22;23.52;;;16.63;;
26536;SDS011;14204;51.262;5.488;2022-10-17T15:27:48;24.27;;;17.50;;
26536;SDS011;14204;51.262;5.488;2022-10-17T15:30:17;22.70;;;16.20;;
26536;SDS011;14204;51.262;5.488;2022-10-17T15:32:54;18.63;;;14.60;;
26536;SDS011;14204;51.262;5.488;2022-10-17T15:35:20;19.25;;;14.85;;
26536;SDS011;14204;51.262;5.488;2022-10-17T15:37:46;21.65;;;15.32;;
26536;SDS011;14204;51.262;5.488;2022-10-17T15:40:13;22.95;;;17.15;;
26536;SDS011;14204;51.262;5.488;2022-10-17T15:42:49;24.42;;;16.40;;
26536;SDS011;14204;51.262;5.488;2022-10-17T15:45:16;21.10;;;15.10;;
26536;SDS011;14204;51.262;5.488;2022-10-17T15:47:43;21.75;;;15.55;;
26536;SDS011;14204;51.262;5.488;2022-10-17T15:50:15;20.45;;;14.93;;
26536;SDS011;14204;51.262;5.488;2022-10-17T15:52:41;23.63;;;14.77;;
26536;SDS011;14204;51.262;5.488;2022-10-17T15:55:08;23.52;;;15.60;;
26536;SDS011;14204;51.262;5.488;2022-10-17T15:57:35;26.42;;;16.75;;
26536;SDS011;14204;51.262;5.488;2022-10-17T16:00:05;27.13;;;17.75;;
26536;SDS011;14204;51.262;5.488;2022-10-17T16:02:35;27.00;;;15.35;;
26536;SDS011;14204;51.262;5.488;2022-10-17T16:05:01;29.33;;;19.05;;
26536;SDS011;14204;51.262;5.488;2022-10-17T16:07:31;26.38;;;17.52;;
26536;SDS011;14204;51.262;5.488;2022-10-17T16:09:57;23.25;;;17.77;;
26536;SDS011;14204;51.262;5.488;2022-10-17T16:12:26;29.98;;;19.63;;
26536;SDS011;14204;51.262;5.488;2022-10-17T16:14:54;36.10;;;19.90;;
26536;SDS011;14204;51.262;5.488;2022-10-17T16:17:21;33.88;;;20.33;;
26536;SDS011;14204;51.262;5.488;2022-10-17T16:19:47;24.25;;;18.13;;
26536;SDS011;14204;51.262;5.488;2022-10-17T16:22:19;21.90;;;17.08;;
26536;SDS011;14204;51.262;5.488;2022-10-17T16:24:57;26.05;;;17.50;;
26536;SDS011;14204;51.262;5.488;2022-10-17T16:27:31;27.25;;;19.10;;
26536;SDS011;14204;51.262;5.488;2022-10-17T16:29:57;26.25;;;17.45;;
26536;SDS011;14204;51.262;5.488;2022-10-17T16:32:23;28.10;;;20.38;;
26536;SDS011;14204;51.262;5.488;2022-10-17T16:34:48;31.05;;;20.08;;
26536;SDS011;14204;51.262;5.488;2022-10-17T16:37:14;26.23;;;18.92;;
26536;SDS011;14204;51.262;5.488;2022-10-17T16:39:39;33.42;;;22.40;;
26536;SDS011;14204;51.262;5.488;2022-10-17T16:42:05;32.40;;;21.42;;
26536;SDS011;14204;51.262;5.488;2022-10-17T16:44:31;39.97;;;24.20;;
26536;SDS011;14204;51.262;5.488;2022-10-17T16:46:56;28.70;;;18.52;;
26536;SDS011;14204;51.262;5.488;2022-10-17T16:49:22;24.35;;;18.95;;
26536;SDS011;14204;51.262;5.488;2022-10-17T16:51:47;35.65;;;20.38;;
26536;SDS011;14204;51.262;5.488;2022-10-17T16:54:13;34.90;;;21.80;;
26536;SDS011;14204;51.262;5.488;2022-10-17T16:56:39;32.88;;;21.10;;
26536;SDS011;14204;51.262;5.488;2022-10-17T16:59:06;35.28;;;22.10;;
26536;SDS011;14204;51.262;5.488;2022-10-17T17:01:33;40.60;;;25.58;;
26536;SDS011;14204;51.262;5.488;2022-10-17T17:03:59;43.55;;;25.73;;
26536;SDS011;14204;51.262;5.488;2022-10-17T17:06:26;34.50;;;23.10;;